Time;durP1;ratioP1;P1;durP2;ratioP2;P2;SDS_P1;SDS_P2;PMS_P1;PMS_P2;Temp;Humidity;BMP_temperature;BMP_pressure;BME280_temperature;BME280_humidity;BME280_pressure;Samples;Min_cycle;Max_cycle;Signal;HPM_P1;HPM_P2
2024/02/17 01:51:58;;;;;;;1999.90;999.90;;;;;;;;;;5275180;22;20227;-69
2024/02/17 01:54:43;;;;;;;1999.90;999.90;;;;;;;;;;5130651;27;20206;-69
2024/02/17 01:57:28;;;;;;;1999.90;999.90;;;;;;;;;;5125381;27;20207;-69
2024/02/17 02:00:14;;;;;;;1999.90;999.90;;;;;;;;;;5121535;27;20930;-70
2024/02/17 02:02:59;;;;;;;1999.90;999.90;;;;;;;;;;5113254;28;20207;-69
2024/02/17 02:05:44;;;;;;;1999.90;999.90;;;;;;;;;;5095923;28;20572;-68
2024/02/17 02:08:30;;;;;;;1999.90;999.90;;;;;;;;;;5092808;28;20204;-69
2024/02/17 02:11:15;;;;;;;1999.90;999.90;;;;;;;;;;5105429;28;20367;-69
2024/02/17 02:14:12;;;;;;;1999.90;999.90;;;;;;;;;;5112905;28;20713;-71
2024/02/17 02:16:57;;;;;;;1999.90;999.90;;;;;;;;;;5112646;28;20210;-69
2024/02/17 02:19:43;;;;;;;1999.90;999.90;;;;;;;;;;5112081;28;20596;-67
2024/02/17 02:22:29;;;;;;;1999.90;999.90;;;;;;;;;;5106784;28;20330;-70
2024/02/17 02:25:23;;;;;;;1999.90;999.90;;;;;;;;;;5104695;28;20203;-69
2024/02/17 02:28:10;;;;;;;1999.90;999.90;;;;;;;;;;5090865;28;20401;-67
2024/02/17 02:30:57;;;;;;;1999.90;999.90;;;;;;;;;;5101560;28;20297;-68
2024/02/17 02:33:42;;;;;;;1999.90;999.90;;;;;;;;;;5110605;28;20215;-69
2024/02/17 02:36:27;;;;;;;1999.90;999.90;;;;;;;;;;5106202;28;20203;-69
2024/02/17 02:39:12;;;;;;;1999.90;999.90;;;;;;;;;;5101086;28;20612;-69
2024/02/17 02:41:57;;;;;;;1999.90;999.90;;;;;;;;;;5110150;28;20723;-68
2024/02/17 02:44:43;;;;;;;1999.90;999.90;;;;;;;;;;5099865;28;20928;-70
2024/02/17 02:47:28;;;;;;;1999.90;999.90;;;;;;;;;;5097920;28;20697;-69
2024/02/17 02:50:13;;;;;;;1999.90;999.90;;;;;;;;;;5106505;28;20231;-68
2024/02/17 02:52:58;;;;;;;1999.90;999.90;;;;;;;;;;5112291;28;20334;-69
2024/02/17 02:55:42;;;;;;;1999.90;999.90;;;;;;;;;;5112397;28;20199;-70
2024/02/17 02:58:27;;;;;;;1999.90;999.90;;;;;;;;;;5112302;28;20351;-70
2024/02/17 03:01:13;;;;;;;1999.90;999.90;;;;;;;;;;5111913;28;20223;-70
2024/02/17 03:03:58;;;;;;;1999.90;999.90;;;;;;;;;;5112395;28;20254;-67
2024/02/17 03:06:43;;;;;;;1999.90;999.90;;;;;;;;;;5112362;28;20202;-69
2024/02/17 03:09:28;;;;;;;1999.90;999.90;;;;;;;;;;5112101;28;20249;-69
2024/02/17 03:12:13;;;;;;;1999.90;999.90;;;;;;;;;;5112268;28;20572;-69
2024/02/17 03:14:58;;;;;;;1999.90;999.90;;;;;;;;;;5112253;28;20206;-68
2024/02/17 03:17:45;;;;;;;1999.90;999.90;;;;;;;;;;5112178;28;20288;-69
2024/02/17 03:20:31;;;;;;;1999.90;999.90;;;;;;;;;;5111362;28;20531;-68
2024/02/17 03:23:16;;;;;;;1999.90;999.90;;;;;;;;;;5112346;28;20195;-70
2024/02/17 03:26:00;;;;;;;1999.90;999.90;;;;;;;;;;5112083;28;20273;-69
2024/02/17 03:28:45;;;;;;;1999.90;999.90;;;;;;;;;;5112404;28;20202;-70
2024/02/17 03:31:30;;;;;;;1999.90;999.90;;;;;;;;;;5111809;28;20289;-69
2024/02/17 03:34:16;;;;;;;1999.90;999.90;;;;;;;;;;5094814;28;20217;-69
2024/02/17 03:37:02;;;;;;;1999.90;999.90;;;;;;;;;;5097070;28;20226;-69
2024/02/17 03:39:48;;;;;;;1999.90;999.90;;;;;;;;;;5095931;28;20221;-71
2024/02/17 03:42:33;;;;;;;1999.90;999.90;;;;;;;;;;5095117;28;20200;-71
2024/02/17 03:45:18;;;;;;;1999.90;999.90;;;;;;;;;;5095543;28;20200;-71
2024/02/17 03:48:03;;;;;;;1999.90;999.90;;;;;;;;;;5095460;28;20290;-71
2024/02/17 03:50:50;;;;;;;1999.90;999.90;;;;;;;;;;5094828;28;20229;-71
2024/02/17 03:53:35;;;;;;;1999.90;999.90;;;;;;;;;;5095240;28;20817;-71
2024/02/17 03:56:20;;;;;;;1999.90;999.90;;;;;;;;;;5095358;28;20580;-71
2024/02/17 03:59:05;;;;;;;1999.90;999.90;;;;;;;;;;5095032;28;20301;-71
2024/02/17 04:01:55;;;;;;;1999.90;999.90;;;;;;;;;;5113049;28;20298;-71
2024/02/17 04:04:40;;;;;;;1999.90;999.90;;;;;;;;;;5109735;28;20606;-71
2024/02/17 04:07:26;;;;;;;1999.90;999.90;;;;;;;;;;5111132;28;20681;-71
2024/02/17 04:10:11;;;;;;;1999.90;999.90;;;;;;;;;;5103220;28;20223;-71
2024/02/17 04:12:56;;;;;;;1999.90;999.90;;;;;;;;;;5105640;28;20212;-70
2024/02/17 04:15:41;;;;;;;1999.90;999.90;;;;;;;;;;5112966;28;20435;-70
2024/02/17 04:18:26;;;;;;;1999.90;999.90;;;;;;;;;;5107462;28;20227;-71
2024/02/17 04:21:11;;;;;;;1999.90;999.90;;;;;;;;;;5112802;28;20645;-71
2024/02/17 04:23:57;;;;;;;1999.90;999.90;;;;;;;;;;5115087;28;20206;-71
2024/02/17 04:26:42;;;;;;;1999.90;999.90;;;;;;;;;;5114133;28;20668;-71
2024/02/17 04:29:27;;;;;;;1999.90;999.90;;;;;;;;;;5094546;28;20899;-71
2024/02/17 04:32:12;;;;;;;1999.90;999.90;;;;;;;;;;5112113;28;20432;-71
2024/02/17 04:34:57;;;;;;;1999.90;999.90;;;;;;;;;;5109776;28;20212;-71
2024/02/17 04:37:42;;;;;;;1999.90;999.90;;;;;;;;;;5108884;28;20208;-71
2024/02/17 04:40:28;;;;;;;1999.90;999.90;;;;;;;;;;5112721;28;20302;-71
2024/02/17 04:43:13;;;;;;;1999.90;999.90;;;;;;;;;;5114711;28;20278;-70
2024/02/17 04:45:58;;;;;;;1999.90;999.90;;;;;;;;;;5112355;28;20212;-71
2024/02/17 04:48:43;;;;;;;1999.90;999.90;;;;;;;;;;5114647;28;20203;-71
2024/02/17 04:51:28;;;;;;;1999.90;999.90;;;;;;;;;;5111685;28;20300;-71
2024/02/17 04:54:12;;;;;;;1999.90;999.90;;;;;;;;;;5113682;28;20215;-71
2024/02/17 04:56:59;;;;;;;1999.90;999.90;;;;;;;;;;5113721;28;20238;-71
2024/02/17 04:59:44;;;;;;;1999.90;999.90;;;;;;;;;;5095315;28;20224;-71
2024/02/17 05:02:29;;;;;;;1999.90;999.90;;;;;;;;;;5104883;28;20288;-71
2024/02/17 05:05:15;;;;;;;1999.90;999.90;;;;;;;;;;5110622;28;20451;-71
2024/02/17 05:08:01;;;;;;;1999.90;999.90;;;;;;;;;;5110124;28;20235;-71
2024/02/17 05:10:45;;;;;;;1999.90;999.90;;;;;;;;;;5113113;28;20358;-71
2024/02/17 05:13:32;;;;;;;1999.90;999.90;;;;;;;;;;5104862;28;20341;-71
2024/02/17 05:16:16;;;;;;;1999.90;999.90;;;;;;;;;;5112923;28;20211;-71
2024/02/17 05:19:01;;;;;;;1999.90;999.90;;;;;;;;;;5114021;28;20293;-71
2024/02/17 05:21:46;;;;;;;1999.90;999.90;;;;;;;;;;5112098;28;20422;-70
2024/02/17 05:24:31;;;;;;;1999.90;999.90;;;;;;;;;;5111073;28;20326;-71
2024/02/17 05:27:17;;;;;;;1999.90;999.90;;;;;;;;;;5112673;28;20206;-71
2024/02/17 05:30:03;;;;;;;1999.90;999.90;;;;;;;;;;5112356;28;20249;-71
2024/02/17 05:32:48;;;;;;;1999.90;999.90;;;;;;;;;;5106473;28;20199;-71
2024/02/17 05:35:34;;;;;;;1999.90;999.90;;;;;;;;;;5100668;28;20219;-70
2024/02/17 05:38:19;;;;;;;1999.90;999.90;;;;;;;;;;5113615;28;20238;-70
2024/02/17 05:41:04;;;;;;;1999.90;999.90;;;;;;;;;;5109723;28;20228;-71
2024/02/17 05:43:49;;;;;;;1999.90;999.90;;;;;;;;;;5105410;28;20793;-71
2024/02/17 05:46:36;;;;;;;1999.90;999.90;;;;;;;;;;5105918;28;20204;-71
2024/02/17 05:49:21;;;;;;;1999.90;999.90;;;;;;;;;;5099201;28;20200;-71
2024/02/17 05:52:06;;;;;;;1999.90;999.90;;;;;;;;;;5112933;28;20330;-70
2024/02/17 05:54:51;;;;;;;1999.90;999.90;;;;;;;;;;5113320;28;20210;-71
2024/02/17 05:57:36;;;;;;;1999.90;999.90;;;;;;;;;;5104951;28;20400;-69
2024/02/17 06:00:22;;;;;;;1999.90;999.90;;;;;;;;;;5115427;28;20255;-70
2024/02/17 06:03:08;;;;;;;1999.90;999.90;;;;;;;;;;5102200;28;20207;-70
2024/02/17 06:05:54;;;;;;;1999.90;999.90;;;;;;;;;;5094419;28;20250;-70
2024/02/17 06:08:39;;;;;;;1999.90;999.90;;;;;;;;;;5105883;28;20309;-71
2024/02/17 06:11:24;;;;;;;1999.90;999.90;;;;;;;;;;5094022;28;20694;-70
2024/02/17 06:14:09;;;;;;;1999.90;999.90;;;;;;;;;;5109562;28;20470;-71
2024/02/17 06:16:54;;;;;;;1999.90;999.90;;;;;;;;;;5108115;28;20425;-71
2024/02/17 06:22:43;;;;;;;1999.90;999.90;;;;;;;;;;5092452;28;20227;-71
2024/02/17 06:25:28;;;;;;;1999.90;999.90;;;;;;;;;;5095551;28;20276;-71
2024/02/17 06:28:13;;;;;;;1999.90;999.90;;;;;;;;;;5104329;28;20706;-71
2024/02/17 06:30:58;;;;;;;1999.90;999.90;;;;;;;;;;5105394;28;20223;-70
2024/02/17 06:33:43;;;;;;;1999.90;999.90;;;;;;;;;;5105739;28;20279;-71
2024/02/17 06:36:29;;;;;;;1999.90;999.90;;;;;;;;;;5112448;28;20337;-70
2024/02/17 06:39:14;;;;;;;1999.90;999.90;;;;;;;;;;5095591;28;20305;-70
2024/02/17 06:41:59;;;;;;;1999.90;999.90;;;;;;;;;;5091965;28;20216;-71
2024/02/17 06:44:44;;;;;;;1999.90;999.90;;;;;;;;;;5092331;28;20196;-71
2024/02/17 06:47:29;;;;;;;1999.90;999.90;;;;;;;;;;5092244;28;20222;-70
2024/02/17 06:50:14;;;;;;;1999.90;999.90;;;;;;;;;;5090266;28;20409;-71
2024/02/17 06:53:00;;;;;;;1999.90;999.90;;;;;;;;;;5103418;28;20219;-71
2024/02/17 06:55:46;;;;;;;1999.90;999.90;;;;;;;;;;5112219;28;20333;-70
2024/02/17 06:58:31;;;;;;;1999.90;999.90;;;;;;;;;;5101567;28;20220;-72
2024/02/17 07:01:16;;;;;;;1999.90;999.90;;;;;;;;;;5108086;28;20234;-71
2024/02/17 07:04:01;;;;;;;1999.90;999.90;;;;;;;;;;5091511;28;20208;-71
2024/02/17 07:06:46;;;;;;;1999.90;999.90;;;;;;;;;;5090335;28;20382;-72
2024/02/17 07:09:32;;;;;;;1999.90;999.90;;;;;;;;;;5093616;28;20215;-70
2024/02/17 07:12:17;;;;;;;1999.90;999.90;;;;;;;;;;5109392;28;20207;-69
2024/02/17 07:15:01;;;;;;;1999.90;999.90;;;;;;;;;;5105065;28;20210;-71
2024/02/17 07:17:47;;;;;;;1999.90;999.90;;;;;;;;;;5116255;28;20215;-71
2024/02/17 07:20:33;;;;;;;1999.90;999.90;;;;;;;;;;5104345;28;20259;-71
2024/02/17 07:23:18;;;;;;;1999.90;999.90;;;;;;;;;;5104810;28;20210;-71
2024/02/17 07:26:05;;;;;;;1999.90;999.90;;;;;;;;;;5115995;28;20207;-71
2024/02/17 07:28:50;;;;;;;1999.90;999.90;;;;;;;;;;5109533;28;20765;-71
2024/02/17 07:31:38;;;;;;;1999.90;999.90;;;;;;;;;;5114137;28;20349;-70
2024/02/17 07:34:23;;;;;;;1999.90;999.90;;;;;;;;;;5112735;28;20709;-71
2024/02/17 07:37:08;;;;;;;1999.90;999.90;;;;;;;;;;5114028;28;20231;-71
2024/02/17 07:39:53;;;;;;;1999.90;999.90;;;;;;;;;;5104367;28;20432;-71
2024/02/17 07:42:39;;;;;;;1999.90;999.90;;;;;;;;;;5112785;27;20205;-71
2024/02/17 07:45:24;;;;;;;1999.90;999.90;;;;;;;;;;5105280;28;20257;-71
2024/02/17 07:48:08;;;;;;;1999.90;999.90;;;;;;;;;;5114712;27;20710;-70
2024/02/17 07:50:54;;;;;;;1999.90;999.90;;;;;;;;;;5112000;27;20260;-71
2024/02/17 07:53:38;;;;;;;1999.90;999.90;;;;;;;;;;5107633;28;20215;-71
2024/02/17 07:56:24;;;;;;;1999.90;999.90;;;;;;;;;;5110499;28;20211;-71
2024/02/17 07:59:10;;;;;;;1999.90;999.90;;;;;;;;;;5111528;28;20379;-70
2024/02/17 08:01:55;;;;;;;1999.90;999.90;;;;;;;;;;5111239;28;20224;-70
2024/02/17 08:04:40;;;;;;;1999.90;999.90;;;;;;;;;;5113002;28;20261;-70
2024/02/17 08:07:25;;;;;;;1999.90;999.90;;;;;;;;;;5113425;28;20204;-69
2024/02/17 08:10:11;;;;;;;1999.90;999.90;;;;;;;;;;5110036;28;20588;-70
2024/02/17 08:12:56;;;;;;;1999.90;999.90;;;;;;;;;;5109865;28;20690;-68
2024/02/17 08:15:42;;;;;;;1999.90;999.90;;;;;;;;;;5112802;28;20855;-71
2024/02/17 08:18:27;;;;;;;1999.90;999.90;;;;;;;;;;5108823;28;20274;-70
2024/02/17 08:21:13;;;;;;;1999.90;999.90;;;;;;;;;;5112949;27;20284;-69
2024/02/17 08:23:58;;;;;;;1999.90;999.90;;;;;;;;;;5109825;28;20303;-70
2024/02/17 08:26:43;;;;;;;1999.90;999.90;;;;;;;;;;5112592;28;20338;-70
2024/02/17 08:29:27;;;;;;;1999.90;999.90;;;;;;;;;;5109855;28;20211;-70
2024/02/17 08:32:14;;;;;;;1999.90;999.90;;;;;;;;;;5108213;28;20915;-69
2024/02/17 08:34:59;;;;;;;1999.90;999.90;;;;;;;;;;5110824;28;20207;-69
2024/02/17 08:37:44;;;;;;;1999.90;999.90;;;;;;;;;;5111861;28;20330;-69
2024/02/17 08:40:28;;;;;;;1999.90;999.90;;;;;;;;;;5109847;28;20311;-70
2024/02/17 08:43:13;;;;;;;1999.90;999.90;;;;;;;;;;5110997;28;20293;-70
2024/02/17 08:45:58;;;;;;;1999.90;999.90;;;;;;;;;;5106939;28;20221;-70
2024/02/17 08:48:44;;;;;;;1999.90;999.90;;;;;;;;;;5111485;28;20530;-70
2024/02/17 08:51:29;;;;;;;1999.90;999.90;;;;;;;;;;5109290;28;20235;-70
2024/02/17 08:54:16;;;;;;;1999.90;999.90;;;;;;;;;;5110066;28;20209;-71
2024/02/17 08:57:01;;;;;;;1999.90;999.90;;;;;;;;;;5107995;28;20730;-70
2024/02/17 08:59:46;;;;;;;1999.90;999.90;;;;;;;;;;5108794;28;20764;-70
2024/02/17 09:02:31;;;;;;;1999.90;999.90;;;;;;;;;;5109668;28;20209;-70
2024/02/17 09:05:17;;;;;;;1999.90;999.90;;;;;;;;;;5107667;28;20205;-69
2024/02/17 09:08:02;;;;;;;1999.90;999.90;;;;;;;;;;5109790;28;20380;-70
2024/02/17 09:10:47;;;;;;;1999.90;999.90;;;;;;;;;;5107745;28;20220;-71
2024/02/17 09:13:32;;;;;;;1999.90;999.90;;;;;;;;;;5110943;28;20201;-70
2024/02/17 09:16:17;;;;;;;1999.90;999.90;;;;;;;;;;5111857;28;20291;-70
2024/02/17 09:19:02;;;;;;;1999.90;999.90;;;;;;;;;;5112290;28;20590;-71
2024/02/17 09:21:48;;;;;;;1999.90;999.90;;;;;;;;;;5108660;28;20899;-70
2024/02/17 09:24:33;;;;;;;1999.90;999.90;;;;;;;;;;5110808;28;20267;-70
2024/02/17 09:27:18;;;;;;;1999.90;999.90;;;;;;;;;;5111612;28;20588;-70
2024/02/17 09:30:04;;;;;;;1999.90;999.90;;;;;;;;;;5111090;28;21093;-70
2024/02/17 09:32:49;;;;;;;1999.90;999.90;;;;;;;;;;5110877;28;20695;-70
2024/02/17 09:35:34;;;;;;;1999.90;999.90;;;;;;;;;;5106965;28;20286;-70
2024/02/17 09:38:20;;;;;;;1999.90;999.90;;;;;;;;;;5109246;28;20215;-70
2024/02/17 09:41:05;;;;;;;1999.90;999.90;;;;;;;;;;5109846;28;20993;-70
2024/02/17 09:43:50;;;;;;;1999.90;999.90;;;;;;;;;;5111462;28;20208;-70
2024/02/17 09:46:35;;;;;;;1999.90;999.90;;;;;;;;;;5110711;28;20211;-69
2024/02/17 09:49:24;;;;;;;1999.90;999.90;;;;;;;;;;5110934;28;20287;-70
2024/02/17 09:52:11;;;;;;;1999.90;999.90;;;;;;;;;;5110801;28;20221;-70
2024/02/17 09:54:58;;;;;;;1999.90;999.90;;;;;;;;;;5110348;27;20593;-69
2024/02/17 09:57:43;;;;;;;1999.90;999.90;;;;;;;;;;5104574;28;20666;-69
2024/02/17 10:00:28;;;;;;;1999.90;999.90;;;;;;;;;;5105556;28;20226;-69
2024/02/17 10:03:14;;;;;;;1999.90;999.90;;;;;;;;;;5110868;28;20216;-70
2024/02/17 10:06:09;;;;;;;1999.90;999.90;;;;;;;;;;5109930;28;20344;-69
2024/02/17 10:08:56;;;;;;;1999.90;999.90;;;;;;;;;;5109643;28;20218;-70
2024/02/17 10:11:42;;;;;;;1999.90;999.90;;;;;;;;;;5110240;28;20229;-70
2024/02/17 10:14:27;;;;;;;1999.90;999.90;;;;;;;;;;5107504;28;20424;-70
2024/02/17 10:17:13;;;;;;;1999.90;999.90;;;;;;;;;;5105611;28;20207;-71
2024/02/17 10:19:58;;;;;;;1999.90;999.90;;;;;;;;;;5106888;28;20301;-70
2024/02/17 10:22:43;;;;;;;1999.90;999.90;;;;;;;;;;5102559;28;20207;-69
2024/02/17 10:25:29;;;;;;;1999.90;999.90;;;;;;;;;;5109668;28;20206;-70
2024/02/17 10:28:15;;;;;;;1999.90;999.90;;;;;;;;;;5107137;28;20275;-70
2024/02/17 10:31:02;;;;;;;1999.90;999.90;;;;;;;;;;5102970;28;20386;-70
2024/02/17 10:33:48;;;;;;;1999.90;999.90;;;;;;;;;;5110286;28;20213;-70
2024/02/17 10:36:34;;;;;;;1999.90;999.90;;;;;;;;;;5109008;28;20296;-71
2024/02/17 10:39:20;;;;;;;1999.90;999.90;;;;;;;;;;5110567;28;20214;-70
2024/02/17 10:42:05;;;;;;;1999.90;999.90;;;;;;;;;;5098300;28;20229;-70
2024/02/17 10:44:52;;;;;;;1999.90;999.90;;;;;;;;;;5109090;28;20214;-69
2024/02/17 10:47:37;;;;;;;1999.90;999.90;;;;;;;;;;5109606;28;20874;-70
2024/02/17 10:50:23;;;;;;;1999.90;999.90;;;;;;;;;;5110332;28;20234;-70
2024/02/17 10:53:10;;;;;;;1999.90;999.90;;;;;;;;;;5109156;28;20217;-70
2024/02/17 10:55:56;;;;;;;1999.90;999.90;;;;;;;;;;5111099;28;20337;-70
2024/02/17 10:58:41;;;;;;;1999.90;999.90;;;;;;;;;;5112521;28;20210;-70
2024/02/17 11:01:29;;;;;;;1999.90;999.90;;;;;;;;;;5112181;28;20588;-69
2024/02/17 11:04:14;;;;;;;1999.90;999.90;;;;;;;;;;5110973;28;20404;-70
2024/02/17 11:07:00;;;;;;;1999.90;999.90;;;;;;;;;;5111910;28;20207;-69
2024/02/17 11:09:45;;;;;;;1999.90;999.90;;;;;;;;;;5112087;28;20226;-69
2024/02/17 11:12:34;;;;;;;1999.90;999.90;;;;;;;;;;5096714;28;20196;-70
2024/02/17 11:15:19;;;;;;;1999.90;999.90;;;;;;;;;;5091953;28;20215;-70
2024/02/17 11:18:06;;;;;;;1999.90;999.90;;;;;;;;;;5092032;28;20210;-69
2024/02/17 11:20:51;;;;;;;1999.90;999.90;;;;;;;;;;5092016;28;20942;-69
2024/02/17 11:23:38;;;;;;;1999.90;999.90;;;;;;;;;;5093617;28;20207;-71
2024/02/17 11:26:23;;;;;;;1999.90;999.90;;;;;;;;;;5093265;28;20211;-69
2024/02/17 11:29:07;;;;;;;1999.90;999.90;;;;;;;;;;5091530;28;20204;-70
2024/02/17 11:31:55;;;;;;;1999.90;999.90;;;;;;;;;;5095208;28;20821;-69
2024/02/17 11:34:41;;;;;;;1999.90;999.90;;;;;;;;;;5112761;28;20211;-69
2024/02/17 11:37:26;;;;;;;1999.90;999.90;;;;;;;;;;5112930;28;20233;-69
2024/02/17 11:40:12;;;;;;;1999.90;999.90;;;;;;;;;;5112013;28;20702;-70
2024/02/17 11:42:56;;;;;;;1999.90;999.90;;;;;;;;;;5112784;28;20204;-69
2024/02/17 11:45:41;;;;;;;1999.90;999.90;;;;;;;;;;5112552;28;20203;-69
2024/02/17 11:48:27;;;;;;;1999.90;999.90;;;;;;;;;;5102086;28;20216;-70
2024/02/17 11:51:14;;;;;;;1999.90;999.90;;;;;;;;;;5091032;28;20430;-69
2024/02/17 11:54:00;;;;;;;1999.90;999.90;;;;;;;;;;5094196;28;20269;-69
2024/02/17 11:56:45;;;;;;;1999.90;999.90;;;;;;;;;;5124833;27;20210;-69
2024/02/17 11:59:30;;;;;;;1999.90;999.90;;;;;;;;;;5115434;28;20202;-70
2024/02/17 12:02:16;;;;;;;1999.90;999.90;;;;;;;;;;5105634;28;20619;-69
2024/02/17 12:05:01;;;;;;;1999.90;999.90;;;;;;;;;;5107295;28;20209;-69
2024/02/17 12:07:47;;;;;;;1999.90;999.90;;;;;;;;;;5115242;28;20104;-69
2024/02/17 12:10:32;;;;;;;1999.90;999.90;;;;;;;;;;5111120;28;20238;-69
2024/02/17 12:13:17;;;;;;;1999.90;999.90;;;;;;;;;;5108501;28;20212;-68
2024/02/17 12:16:06;;;;;;;1999.90;999.90;;;;;;;;;;5098310;28;20705;-69
2024/02/17 12:18:53;;;;;;;1999.90;999.90;;;;;;;;;;5115246;28;20215;-69
2024/02/17 12:21:38;;;;;;;1999.90;999.90;;;;;;;;;;5112180;28;20825;-69
2024/02/17 12:24:25;;;;;;;1999.90;999.90;;;;;;;;;;5109151;28;20222;-69
2024/02/17 12:27:10;;;;;;;1999.90;999.90;;;;;;;;;;5114997;28;20210;-69
2024/02/17 12:29:54;;;;;;;1999.90;999.90;;;;;;;;;;5111936;28;20234;-69
2024/02/17 12:32:39;;;;;;;1999.90;999.90;;;;;;;;;;5109117;28;20262;-69
2024/02/17 12:35:25;;;;;;;1999.90;999.90;;;;;;;;;;5110631;28;20590;-69
2024/02/17 12:38:10;;;;;;;1999.90;999.90;;;;;;;;;;5111518;28;20213;-68
2024/02/17 12:41:01;;;;;;;1999.90;999.90;;;;;;;;;;5113233;28;20574;-69
2024/02/17 12:43:48;;;;;;;1999.90;999.90;;;;;;;;;;5110361;28;20211;-69
2024/02/17 12:46:38;;;;;;;1999.90;999.90;;;;;;;;;;5107695;28;20208;-69
2024/02/17 12:49:24;;;;;;;1999.90;999.90;;;;;;;;;;5108088;28;20195;-69
2024/02/17 12:52:09;;;;;;;1999.90;999.90;;;;;;;;;;5111988;28;20203;-68
2024/02/17 12:54:55;;;;;;;1999.90;999.90;;;;;;;;;;5107544;28;20315;-70
2024/02/17 12:57:41;;;;;;;1999.90;999.90;;;;;;;;;;5104109;28;25109;-69
2024/02/17 13:00:26;;;;;;;1999.90;999.90;;;;;;;;;;5111758;28;20223;-69
2024/02/17 13:03:12;;;;;;;1999.90;999.90;;;;;;;;;;5106613;28;20605;-68
2024/02/17 13:05:59;;;;;;;1999.90;999.90;;;;;;;;;;5103149;28;20273;-69
2024/02/17 13:08:44;;;;;;;1999.90;999.90;;;;;;;;;;5110754;28;20210;-69
2024/02/17 13:11:30;;;;;;;1999.90;999.90;;;;;;;;;;5104700;28;20220;-69
2024/02/17 13:14:16;;;;;;;1999.90;999.90;;;;;;;;;;5093660;28;20587;-69
2024/02/17 13:17:01;;;;;;;1999.90;999.90;;;;;;;;;;5111791;28;20288;-69
2024/02/17 13:19:46;;;;;;;1999.90;999.90;;;;;;;;;;5104885;28;20215;-68
2024/02/17 13:22:32;;;;;;;1999.90;999.90;;;;;;;;;;5113715;28;20260;-69
2024/02/17 13:25:17;;;;;;;1999.90;999.90;;;;;;;;;;5093558;28;20302;-68
2024/02/17 13:28:02;;;;;;;1999.90;999.90;;;;;;;;;;5101983;28;20296;-68
2024/02/17 13:30:48;;;;;;;1999.90;999.90;;;;;;;;;;5113379;28;20419;-69
2024/02/17 13:33:33;;;;;;;1999.90;999.90;;;;;;;;;;5113575;28;20702;-69
2024/02/17 13:36:18;;;;;;;1999.90;999.90;;;;;;;;;;5113417;28;20204;-69
2024/02/17 13:39:03;;;;;;;1999.90;999.90;;;;;;;;;;5113767;28;20222;-69
2024/02/17 13:41:49;;;;;;;1999.90;999.90;;;;;;;;;;5113318;28;20244;-69
2024/02/17 13:44:37;;;;;;;1999.90;999.90;;;;;;;;;;5113596;28;20218;-68
2024/02/17 13:47:25;;;;;;;1999.90;999.90;;;;;;;;;;5113440;28;20724;-68
2024/02/17 13:50:11;;;;;;;1999.90;999.90;;;;;;;;;;5113175;28;20280;-69
2024/02/17 13:52:56;;;;;;;1999.90;999.90;;;;;;;;;;5113403;28;20683;-68
2024/02/17 13:55:40;;;;;;;1999.90;999.90;;;;;;;;;;5120648;27;20257;-69
2024/02/17 13:58:25;;;;;;;1999.90;999.90;;;;;;;;;;5133889;27;20206;-68
2024/02/17 14:01:10;;;;;;;1999.90;999.90;;;;;;;;;;5133368;27;20226;-68
2024/02/17 14:03:58;;;;;;;1999.90;999.90;;;;;;;;;;5130162;27;20690;-68
2024/02/17 14:06:43;;;;;;;1999.90;999.90;;;;;;;;;;5113027;28;20203;-69
2024/02/17 14:09:28;;;;;;;1999.90;999.90;;;;;;;;;;5112924;28;20199;-70
2024/02/17 14:12:15;;;;;;;1999.90;999.90;;;;;;;;;;5112926;28;20207;-68
2024/02/17 14:15:00;;;;;;;1999.90;999.90;;;;;;;;;;5113091;28;20694;-70
2024/02/17 14:17:46;;;;;;;1999.90;999.90;;;;;;;;;;5112625;28;20203;-69
2024/02/17 14:20:32;;;;;;;1999.90;999.90;;;;;;;;;;5112783;28;20707;-70
2024/02/17 14:23:17;;;;;;;1999.90;999.90;;;;;;;;;;5112628;28;20219;-70
2024/02/17 14:26:02;;;;;;;1999.90;999.90;;;;;;;;;;5112752;28;20219;-69
2024/02/17 14:28:47;;;;;;;1999.90;999.90;;;;;;;;;;5108478;28;20699;-69
2024/02/17 14:31:32;;;;;;;1999.90;999.90;;;;;;;;;;5106847;28;20715;-69
2024/02/17 14:34:17;;;;;;;1999.90;999.90;;;;;;;;;;5107827;28;20211;-68
2024/02/17 14:37:04;;;;;;;1999.90;999.90;;;;;;;;;;5111302;28;20999;-68
2024/02/17 14:39:49;;;;;;;1999.90;999.90;;;;;;;;;;5104177;28;20204;-68
2024/02/17 14:42:35;;;;;;;1999.90;999.90;;;;;;;;;;5106098;28;20219;-68
2024/02/17 14:45:23;;;;;;;1999.90;999.90;;;;;;;;;;5112431;28;20219;-68
2024/02/17 14:48:08;;;;;;;1999.90;999.90;;;;;;;;;;5110410;28;20214;-68
2024/02/17 14:50:53;;;;;;;1999.90;999.90;;;;;;;;;;5106658;28;20243;-68
2024/02/17 14:53:40;;;;;;;1999.90;999.90;;;;;;;;;;5107508;28;20210;-69
2024/02/17 14:56:25;;;;;;;1999.90;999.90;;;;;;;;;;5104408;27;20289;-69
2024/02/17 14:59:10;;;;;;;1999.90;999.90;;;;;;;;;;5111245;28;20722;-68
2024/02/17 15:01:55;;;;;;;1999.90;999.90;;;;;;;;;;5110340;28;20788;-69
2024/02/17 15:04:39;;;;;;;1999.90;999.90;;;;;;;;;;5112285;28;20284;-69
2024/02/17 15:07:24;;;;;;;1999.90;999.90;;;;;;;;;;5102057;28;20209;-68
2024/02/17 15:10:11;;;;;;;1999.90;999.90;;;;;;;;;;5101707;28;20538;-67
2024/02/17 15:12:56;;;;;;;1999.90;999.90;;;;;;;;;;5103300;28;20203;-68
2024/02/17 15:15:46;;;;;;;1999.90;999.90;;;;;;;;;;5099851;28;20206;-68
2024/02/17 15:18:33;;;;;;;1999.90;999.90;;;;;;;;;;5104877;28;20325;-69
2024/02/17 15:21:18;;;;;;;1999.90;999.90;;;;;;;;;;5107135;28;20235;-69
2024/02/17 15:24:03;;;;;;;1999.90;999.90;;;;;;;;;;5111757;28;20245;-69
2024/02/17 15:26:49;;;;;;;1999.90;999.90;;;;;;;;;;5104212;28;20406;-69
2024/02/17 15:29:34;;;;;;;1999.90;999.90;;;;;;;;;;5091956;28;20211;-68
2024/02/17 15:32:19;;;;;;;1999.90;999.90;;;;;;;;;;5098101;28;20208;-68
2024/02/17 15:35:04;;;;;;;1999.90;999.90;;;;;;;;;;5115918;28;20703;-69
2024/02/17 15:37:50;;;;;;;1999.90;999.90;;;;;;;;;;5116008;28;20215;-68
2024/02/17 15:40:35;;;;;;;1999.90;999.90;;;;;;;;;;5115412;28;20233;-69
2024/02/17 15:43:21;;;;;;;1999.90;999.90;;;;;;;;;;5115401;28;20249;-68
2024/02/17 15:46:06;;;;;;;1999.90;999.90;;;;;;;;;;5115360;28;20687;-69
2024/02/17 15:48:53;;;;;;;1999.90;999.90;;;;;;;;;;5115821;28;20230;-70
2024/02/17 15:51:38;;;;;;;1999.90;999.90;;;;;;;;;;5115423;28;20737;-69
2024/02/17 15:54:24;;;;;;;1999.90;999.90;;;;;;;;;;5114101;28;20222;-68
2024/02/17 15:57:08;;;;;;;1999.90;999.90;;;;;;;;;;5110722;27;20203;-68
2024/02/17 15:59:55;;;;;;;1999.90;999.90;;;;;;;;;;5112825;28;20210;-68
2024/02/17 16:02:40;;;;;;;1999.90;999.90;;;;;;;;;;5113521;28;20304;-68
2024/02/17 16:05:25;;;;;;;1999.90;999.90;;;;;;;;;;5115082;28;20207;-68
2024/02/17 16:08:11;;;;;;;1999.90;999.90;;;;;;;;;;5115268;28;20296;-69
2024/02/17 16:10:56;;;;;;;1999.90;999.90;;;;;;;;;;5110816;28;20234;-69
2024/02/17 16:13:42;;;;;;;1999.90;999.90;;;;;;;;;;5110221;28;20206;-69
2024/02/17 16:16:29;;;;;;;1999.90;999.90;;;;;;;;;;5101574;28;20714;-69
2024/02/17 16:19:14;;;;;;;1999.90;999.90;;;;;;;;;;5113292;28;20898;-69
2024/02/17 16:21:59;;;;;;;1999.90;999.90;;;;;;;;;;5110964;28;20357;-69
2024/02/17 16:24:44;;;;;;;1999.90;999.90;;;;;;;;;;5115237;28;20328;-70
2024/02/17 16:27:29;;;;;;;1999.90;999.90;;;;;;;;;;5115122;28;20697;-69
2024/02/17 16:30:14;;;;;;;1999.90;999.90;;;;;;;;;;5114635;28;20234;-69
2024/02/17 16:33:00;;;;;;;1999.90;999.90;;;;;;;;;;5108817;28;20695;-70
2024/02/17 16:35:45;;;;;;;1999.90;999.90;;;;;;;;;;5114861;28;20265;-69
2024/02/17 16:38:30;;;;;;;1999.90;999.90;;;;;;;;;;5114927;28;20702;-69
2024/02/17 16:41:15;;;;;;;1999.90;999.90;;;;;;;;;;5114505;28;20316;-69
2024/02/17 16:43:59;;;;;;;1999.90;999.90;;;;;;;;;;5098299;28;20339;-69
2024/02/17 16:46:45;;;;;;;1999.90;999.90;;;;;;;;;;5108449;28;20206;-69
2024/02/17 16:49:31;;;;;;;1999.90;999.90;;;;;;;;;;5103477;28;20541;-70
2024/02/17 16:52:16;;;;;;;1999.90;999.90;;;;;;;;;;5111092;28;20253;-69
2024/02/17 16:55:01;;;;;;;1999.90;999.90;;;;;;;;;;5114389;27;21229;-69
2024/02/17 16:57:46;;;;;;;1999.90;999.90;;;;;;;;;;5105862;28;20294;-69
2024/02/17 17:00:31;;;;;;;1999.90;999.90;;;;;;;;;;5112167;28;20277;-69
2024/02/17 17:03:17;;;;;;;1999.90;999.90;;;;;;;;;;5109794;28;20234;-70
2024/02/17 17:06:04;;;;;;;1999.90;999.90;;;;;;;;;;5114526;28;20266;-69
2024/02/17 17:08:49;;;;;;;1999.90;999.90;;;;;;;;;;5106734;28;20390;-69
2024/02/17 17:11:34;;;;;;;1999.90;999.90;;;;;;;;;;5093904;28;20225;-69
2024/02/17 17:14:19;;;;;;;1999.90;999.90;;;;;;;;;;5103916;28;20213;-69
2024/02/17 17:17:04;;;;;;;1999.90;999.90;;;;;;;;;;5114011;28;20222;-69